Time;durP1;ratioP1;P1;durP2;ratioP2;P2;SDS_P1;SDS_P2;PMS_P1;PMS_P2;Temp;Humidity;BMP_temperature;BMP_pressure;BME280_temperature;BME280_humidity;BME280_pressure;Samples;Min_cycle;Max_cycle;Signal;HPM_P1;HPM_P2
2023/01/16 00:01:21;;;;;;;13.98;7.07;;;;;;;2.92;100.00;99522.38;5052320;28;20380;-55
2023/01/16 00:03:46;;;;;;;10.32;5.03;;;;;;;2.87;100.00;99506.91;5051676;28;20029;-54
2023/01/16 00:06:12;;;;;;;13.00;6.07;;;;;;;2.84;100.00;99504.28;5052092;28;20049;-55
2023/01/16 00:08:38;;;;;;;13.15;4.85;;;;;;;2.79;100.00;99500.69;5052090;28;20029;-55
2023/01/16 00:11:03;;;;;;;13.05;4.43;;;;;;;2.73;100.00;99496.19;5051745;28;20108;-54
2023/01/16 00:13:28;;;;;;;12.52;4.00;;;;;;;2.70;100.00;99491.00;5051886;28;20021;-55
2023/01/16 00:15:54;;;;;;;10.38;4.30;;;;;;;2.66;100.00;99498.44;5054202;28;20081;-54
2023/01/16 00:18:19;;;;;;;9.55;5.18;;;;;;;2.63;100.00;99497.53;5055269;28;20039;-53
2023/01/16 00:20:46;;;;;;;16.45;6.28;;;;;;;2.56;100.00;99487.91;5055576;28;20024;-53
2023/01/16 00:23:12;;;;;;;17.02;9.90;;;;;;;2.53;100.00;99486.91;5055326;28;20108;-55
2023/01/16 00:25:43;;;;;;;12.77;6.10;;;;;;;2.47;100.00;99483.31;5055091;28;20539;-55
2023/01/16 00:28:10;;;;;;;13.02;5.25;;;;;;;2.45;100.00;99474.78;5055940;28;20057;-55
2023/01/16 00:30:35;;;;;;;13.45;5.65;;;;;;;2.43;100.00;99475.53;5054996;28;20025;-53
2023/01/16 00:33:01;;;;;;;13.57;5.20;;;;;;;2.39;100.00;99482.16;5055453;28;20091;-55
2023/01/16 00:35:27;;;;;;;19.20;6.45;;;;;;;2.39;100.00;99476.19;5055691;28;20024;-55
2023/01/16 00:37:52;;;;;;;16.85;6.78;;;;;;;2.34;100.00;99470.03;5054556;28;20380;-54
2023/01/16 00:40:18;;;;;;;14.75;5.97;;;;;;;2.34;100.00;99470.03;5055290;28;20017;-54
2023/01/16 00:42:43;;;;;;;18.48;6.18;;;;;;;2.31;100.00;99470.78;5055274;28;20029;-54
2023/01/16 00:45:09;;;;;;;20.85;6.35;;;;;;;2.29;100.00;99472.41;5055064;28;20385;-54
2023/01/16 00:47:34;;;;;;;18.48;6.53;;;;;;;2.28;100.00;99463.03;5054729;28;20035;-54
2023/01/16 00:49:59;;;;;;;16.27;6.18;;;;;;;2.28;100.00;99463.91;5055508;28;20059;-54
2023/01/16 00:52:25;;;;;;;22.33;6.75;;;;;;;2.29;100.00;99462.25;5054770;28;20388;-54
2023/01/16 00:54:50;;;;;;;20.65;5.97;;;;;;;2.26;100.00;99460.44;5054673;28;20024;-54
2023/01/16 00:57:15;;;;;;;14.88;5.95;;;;;;;2.28;100.00;99453.72;5055136;28;20472;-54
2023/01/16 00:59:41;;;;;;;22.15;6.25;;;;;;;2.27;100.00;99448.59;5054462;28;20031;-54
2023/01/16 01:02:06;;;;;;;19.15;6.70;;;;;;;2.28;100.00;99435.94;5054885;28;20391;-53
2023/01/16 01:04:31;;;;;;;27.80;6.68;;;;;;;2.27;100.00;99428.25;5054855;28;20036;-55
2023/01/16 01:06:56;;;;;;;18.75;6.53;;;;;;;2.27;100.00;99426.59;5054212;28;20040;-54
2023/01/16 01:09:22;;;;;;;14.55;6.05;;;;;;;2.24;100.00;99417.97;5054738;28;20025;-54
2023/01/16 01:11:47;;;;;;;20.02;6.80;;;;;;;2.18;100.00;99421.13;5054789;28;20020;-55
2023/01/16 01:14:12;;;;;;;26.88;6.43;;;;;;;2.15;100.00;99418.47;5054525;28;20032;-55
2023/01/16 01:16:40;;;;;;;18.02;6.22;;;;;;;2.16;100.00;99420.22;5054258;28;20121;-53
2023/01/16 01:19:05;;;;;;;23.07;6.70;;;;;;;2.14;100.00;99417.63;5054760;28;20057;-54
2023/01/16 01:21:30;;;;;;;22.15;6.28;;;;;;;2.15;100.00;99405.75;5053857;28;20319;-54
2023/01/16 01:23:56;;;;;;;19.88;5.32;;;;;;;2.13;100.00;99409.91;5054651;28;20116;-54
2023/01/16 01:26:21;;;;;;;22.85;5.53;;;;;;;2.11;100.00;99406.44;5053573;28;20086;-55
2023/01/16 01:28:47;;;;;;;20.15;5.53;;;;;;;2.09;100.00;99392.81;5054248;28;20032;-55
2023/01/16 01:31:13;;;;;;;25.25;5.20;;;;;;;2.06;100.00;99397.78;5054720;28;20052;-55
2023/01/16 01:33:39;;;;;;;20.67;5.30;;;;;;;2.03;100.00;99382.38;5053862;28;20047;-55
2023/01/16 01:36:06;;;;;;;19.88;4.45;;;;;;;2.04;100.00;99379.94;5054319;28;20033;-54
2023/01/16 01:38:31;;;;;;;22.88;5.28;;;;;;;2.05;100.00;99374.00;5054009;28;20065;-54
2023/01/16 01:40:56;;;;;;;17.35;4.53;;;;;;;2.06;100.00;99369.81;5053897;28;20060;-55
2023/01/16 01:43:42;;;;;;;22.35;5.05;;;;;;;2.03;100.00;99365.47;5054355;28;20108;-55
2023/01/16 01:46:18;;;;;;;20.63;4.95;;;;;;;2.00;100.00;99354.31;5054570;28;20021;-54
2023/01/16 01:48:45;;;;;;;20.50;5.30;;;;;;;1.97;100.00;99348.31;5053359;28;20491;-54
2023/01/16 01:51:16;;;;;;;17.90;4.20;;;;;;;1.89;100.00;99339.50;5053844;28;20055;-55
2023/01/16 01:53:48;;;;;;;16.45;4.60;;;;;;;1.89;100.00;99329.34;5053790;28;20494;-54
2023/01/16 01:56:24;;;;;;;22.13;5.22;;;;;;;1.86;100.00;99324.16;5053737;28;20016;-55
2023/01/16 01:58:55;;;;;;;21.20;5.30;;;;;;;1.85;100.00;99322.44;5053745;28;20033;-55
2023/01/16 02:01:21;;;;;;;22.17;4.65;;;;;;;1.89;100.00;99318.34;5053854;28;20424;-54
2023/01/16 02:03:52;;;;;;;20.00;5.05;;;;;;;1.85;100.00;99302.09;5052976;28;20037;-55
2023/01/16 02:06:21;;;;;;;17.83;4.78;;;;;;;1.81;100.00;99306.19;5053863;28;20052;-54
2023/01/16 02:08:52;;;;;;;20.90;5.40;;;;;;;1.83;100.00;99296.09;5053120;28;20021;-55
2023/01/16 02:11:25;;;;;;;26.52;4.78;;;;;;;1.86;100.00;99282.63;5053650;28;20025;-54
2023/01/16 02:14:00;;;;;;;23.23;5.40;;;;;;;1.84;100.00;99290.19;5053589;28;20036;-54
2023/01/16 02:19:23;;;;;;;18.98;5.00;;;;;;;1.85;100.00;99276.69;5053315;28;20090;-55
2023/01/16 02:22:04;;;;;;;28.65;5.35;;;;;;;1.87;100.00;99275.06;5053243;28;20456;-55
2023/01/16 02:24:48;;;;;;;19.83;4.60;;;;;;;1.87;100.00;99277.59;5052457;28;20036;-55
2023/01/16 02:27:34;;;;;;;34.33;5.95;;;;;;;1.95;100.00;99271.16;5054060;28;20025;-55
2023/01/16 02:30:08;;;;;;;20.60;5.53;;;;;;;1.97;100.00;99266.13;5053081;28;20078;-54
2023/01/16 02:32:58;;;;;;;21.13;4.60;;;;;;;1.97;100.00;99255.97;5053006;28;20090;-55
2023/01/16 02:35:40;;;;;;;14.93;4.65;;;;;;;1.92;100.00;99248.16;5053604;28;20025;-55
2023/01/16 02:38:19;;;;;;;27.60;5.18;;;;;;;1.94;100.00;99236.41;5052187;28;20029;-54
2023/01/16 02:41:03;;;;;;;24.33;6.07;;;;;;;1.96;100.00;99219.56;5052851;28;20072;-53
2023/01/16 02:43:38;;;;;;;23.48;5.45;;;;;;;1.93;100.00;99218.56;5052873;28;20536;-55
2023/01/16 02:46:29;;;;;;;20.83;5.15;;;;;;;1.93;100.00;99199.09;5052980;28;20061;-55
2023/01/16 02:49:10;;;;;;;23.02;5.53;;;;;;;1.91;100.00;99198.19;5053049;28;20566;-55
2023/01/16 02:51:57;;;;;;;14.10;4.93;;;;;;;1.89;100.00;99184.53;5052321;28;20032;-55
2023/01/16 02:54:33;;;;;;;23.38;6.15;;;;;;;1.87;100.00;99172.59;5053028;28;20147;-55
2023/01/16 02:57:12;;;;;;;20.60;5.20;;;;;;;1.80;100.00;99166.44;5053207;28;20021;-55
2023/01/16 02:59:41;;;;;;;17.70;5.30;;;;;;;1.78;100.00;99153.66;5052034;28;20033;-54
2023/01/16 03:02:08;;;;;;;26.15;5.57;;;;;;;1.77;100.00;99148.50;5052762;28;20475;-54
2023/01/16 03:04:36;;;;;;;20.95;5.25;;;;;;;1.74;100.00;99140.78;5052882;28;20025;-55
2023/01/16 03:07:05;;;;;;;23.60;4.80;;;;;;;1.74;100.00;99151.84;5052117;28;20085;-55
2023/01/16 03:09:40;;;;;;;26.58;5.97;;;;;;;1.70;100.00;99139.81;5052802;28;20025;-55
2023/01/16 03:12:26;;;;;;;28.45;5.55;;;;;;;1.68;100.00;99130.41;5052336;28;20036;-55
2023/01/16 03:15:09;;;;;;;27.45;5.25;;;;;;;1.70;100.00;99122.03;5052606;28;20080;-55
2023/01/16 03:18:15;;;;;;;20.17;4.57;;;;;;;1.70;100.00;99113.56;5052433;28;20020;-55
2023/01/16 03:20:54;;;;;;;23.33;4.93;;;;;;;1.67;100.00;99104.16;5052185;28;20135;-55
2023/01/16 03:23:45;;;;;;;19.17;4.30;;;;;;;1.64;100.00;99097.28;5052965;28;20025;-55
2023/01/16 03:26:40;;;;;;;16.63;4.35;;;;;;;1.60;100.00;99092.03;5052306;28;20053;-54
2023/01/16 03:29:18;;;;;;;22.27;4.78;;;;;;;1.55;100.00;99083.38;5052416;28;20047;-55
2023/01/16 03:32:07;;;;;;;18.83;4.25;;;;;;;1.57;100.00;99069.91;5052527;28;20021;-54
2023/01/16 03:34:38;;;;;;;17.75;4.68;;;;;;;1.56;100.00;99060.59;5052070;28;20029;-55
2023/01/16 03:37:11;;;;;;;23.58;4.55;;;;;;;1.54;100.00;99063.88;5052660;28;20032;-54
2023/01/16 03:39:42;;;;;;;21.42;4.72;;;;;;;1.55;100.00;99053.78;5052047;28;20036;-55
2023/01/16 03:42:13;;;;;;;23.45;4.63;;;;;;;1.50;100.00;99044.25;5051798;28;20456;-54
2023/01/16 03:44:45;;;;;;;19.67;4.25;;;;;;;1.46;100.00;99043.28;5052456;28;20063;-55
2023/01/16 03:47:19;;;;;;;19.10;4.03;;;;;;;1.44;100.00;99033.06;5052203;28;20033;-54
2023/01/16 03:49:53;;;;;;;17.58;4.45;;;;;;;1.43;100.00;99018.66;5053822;28;20037;-55
2023/01/16 03:52:23;;;;;;;19.73;4.07;;;;;;;1.44;100.00;99014.44;5056383;28;20511;-54
2023/01/16 03:54:48;;;;;;;22.40;4.70;;;;;;;1.40;100.00;99000.75;5055732;28;20027;-55
2023/01/16 03:57:15;;;;;;;23.52;4.60;;;;;;;1.37;100.00;98995.59;5056261;28;20127;-55
2023/01/16 03:59:43;;;;;;;25.98;4.50;;;;;;;1.35;100.00;98988.72;5055875;28;20494;-55
2023/01/16 04:02:18;;;;;;;23.08;5.38;;;;;;;1.35;100.00;98979.41;5055699;28;20067;-55
2023/01/16 04:04:51;;;;;;;22.60;4.53;;;;;;;1.30;100.00;98965.69;5055636;28;20491;-55
2023/01/16 04:07:42;;;;;;;16.35;4.18;;;;;;;1.36;100.00;98960.84;5055967;28;20388;-54
2023/01/16 04:10:20;;;;;;;17.83;4.40;;;;;;;1.30;100.00;98946.28;5052635;28;20055;-55
2023/01/16 04:12:52;;;;;;;21.00;5.25;;;;;;;1.29;100.00;98944.53;5055709;28;20407;-55
2023/01/16 04:15:19;;;;;;;22.73;5.45;;;;;;;1.30;100.00;98936.13;5055669;28;20040;-55
2023/01/16 04:17:45;;;;;;;25.38;6.07;;;;;;;1.31;100.00;98932.75;5055517;28;20064;-55
2023/01/16 04:20:11;;;;;;;25.15;6.03;;;;;;;1.31;100.00;98920.06;5055789;28;20064;-55
2023/01/16 04:22:36;;;;;;;19.23;5.90;;;;;;;1.34;100.00;98923.53;5054902;28;20033;-55
2023/01/16 04:25:07;;;;;;;22.55;5.72;;;;;;;1.37;100.00;98910.94;5055592;28;20033;-54
2023/01/16 04:27:32;;;;;;;22.17;5.80;;;;;;;1.38;100.00;98897.44;5055434;28;20465;-55
2023/01/16 04:29:58;;;;;;;18.63;5.78;;;;;;;1.42;100.00;98889.13;5055363;28;20067;-55
2023/01/16 04:32:23;;;;;;;16.05;5.75;;;;;;;1.44;100.00;98884.97;5055506;28;20027;-53
2023/01/16 04:34:48;;;;;;;19.48;6.03;;;;;;;1.48;100.00;98876.63;5055414;28;20107;-55
2023/01/16 04:37:16;;;;;;;31.13;6.45;;;;;;;1.52;100.00;98860.69;5055005;28;20025;-55
2023/01/16 04:39:41;;;;;;;20.45;5.70;;;;;;;1.59;100.00;98855.03;5055078;28;20095;-55
2023/01/16 04:42:07;;;;;;;19.70;5.82;;;;;;;1.64;100.00;98843.34;5055469;28;20025;-55
2023/01/16 04:44:33;;;;;;;23.05;5.35;;;;;;;1.71;100.00;98833.38;5054829;28;20017;-55
2023/01/16 04:46:58;;;;;;;18.40;4.90;;;;;;;1.76;100.00;98820.00;5055341;28;20473;-55
2023/01/16 04:49:23;;;;;;;24.15;5.47;;;;;;;1.81;100.00;98813.41;5055537;28;20029;-55
2023/01/16 04:51:49;;;;;;;26.73;5.72;;;;;;;1.87;100.00;98805.09;5054307;28;20029;-55
2023/01/16 04:54:16;;;;;;;20.15;5.22;;;;;;;1.93;100.00;98796.84;5055388;28;20028;-55
2023/01/16 04:56:41;;;;;;;23.27;5.20;;;;;;;1.96;100.00;98786.75;5055112;28;20056;-55
2023/01/16 04:59:08;;;;;;;30.52;5.65;;;;;;;2.01;100.00;98774.19;5054747;28;20057;-54
2023/01/16 05:01:34;;;;;;;23.83;5.55;;;;;;;2.05;100.00;98773.47;5054244;28;20096;-55
2023/01/16 05:04:08;;;;;;;18.45;4.88;;;;;;;2.09;100.00;98762.56;5055303;28;20017;-54
2023/01/16 05:06:33;;;;;;;19.13;4.97;;;;;;;2.14;100.00;98758.50;5054257;28;20053;-54
2023/01/16 05:08:59;;;;;;;21.92;4.88;;;;;;;2.22;100.00;98753.63;5055096;28;20025;-54
2023/01/16 05:11:24;;;;;;;21.05;5.28;;;;;;;2.27;100.00;98734.31;5054411;28;20020;-55
2023/01/16 05:13:51;;;;;;;25.15;5.55;;;;;;;2.32;100.00;98724.28;5054582;28;20112;-55
2023/01/16 05:16:16;;;;;;;19.58;5.13;;;;;;;2.36;100.00;98715.91;5054956;28;20048;-55
2023/01/16 05:18:42;;;;;;;15.90;4.72;;;;;;;2.40;100.00;98713.50;5054033;28;20782;-55
2023/01/16 05:21:07;;;;;;;22.80;5.13;;;;;;;2.46;100.00;98708.56;5054659;28;20029;-54
2023/01/16 05:23:34;;;;;;;22.90;4.32;;;;;;;2.51;100.00;98701.06;5054459;28;20386;-55
2023/01/16 05:26:00;;;;;;;21.55;4.60;;;;;;;2.55;100.00;98691.84;5054169;28;20087;-55
2023/01/16 05:28:25;;;;;;;16.33;4.55;;;;;;;2.57;100.00;98687.66;5054583;28;20021;-55
2023/01/16 05:30:51;;;;;;;17.13;4.53;;;;;;;2.59;100.00;98674.16;5054231;28;20029;-54
2023/01/16 05:33:17;;;;;;;15.88;4.53;;;;;;;2.61;100.00;98661.50;5054137;28;20024;-55
2023/01/16 05:35:42;;;;;;;16.52;4.47;;;;;;;2.61;100.00;98658.97;5054196;28;20043;-55
2023/01/16 05:38:07;;;;;;;17.67;4.35;;;;;;;2.59;100.00;98638.56;5054301;28;20100;-55
2023/01/16 05:40:33;;;;;;;20.35;5.07;;;;;;;2.63;100.00;98632.75;5053435;28;20033;-53
2023/01/16 05:42:58;;;;;;;14.85;4.60;;;;;;;2.67;100.00;98622.66;5054091;28;20427;-55
2023/01/16 05:45:23;;;;;;;28.17;4.70;;;;;;;2.68;100.00;98611.66;5054452;28;20039;-55
2023/01/16 05:47:49;;;;;;;15.18;3.72;;;;;;;2.69;100.00;98600.66;5053450;28;20021;-54
2023/01/16 05:50:14;;;;;;;17.50;4.25;;;;;;;2.72;100.00;98590.56;5054296;28;20037;-54
2023/01/16 05:52:39;;;;;;;18.75;4.28;;;;;;;2.77;100.00;98576.28;5053970;28;20480;-55
2023/01/16 05:55:05;;;;;;;18.83;4.35;;;;;;;2.79;100.00;98569.53;5053310;28;20021;-55
2023/01/16 05:57:30;;;;;;;15.15;3.80;;;;;;;2.80;100.00;98576.34;5053756;28;20045;-55
2023/01/16 05:59:56;;;;;;;14.40;4.25;;;;;;;2.82;100.00;98567.06;5054057;28;20032;-54
2023/01/16 06:02:21;;;;;;;16.95;3.25;;;;;;;2.83;100.00;98563.72;5053289;28;20032;-55
2023/01/16 06:04:47;;;;;;;18.60;3.33;;;;;;;2.89;100.00;98548.59;5053626;28;20614;-54
2023/01/16 06:07:13;;;;;;;13.75;3.65;;;;;;;2.91;100.00;98546.91;5053687;28;20055;-55
2023/01/16 06:09:38;;;;;;;16.55;3.20;;;;;;;2.93;100.00;98545.28;5052648;28;20025;-55
2023/01/16 06:12:04;;;;;;;13.85;3.83;;;;;;;2.93;100.00;98542.75;5053943;28;20021;-55
2023/01/16 06:14:29;;;;;;;16.92;3.60;;;;;;;2.93;100.00;98547.81;5053668;28;20021;-55
2023/01/16 06:16:55;;;;;;;13.27;3.60;;;;;;;2.94;100.00;98533.41;5052982;28;20025;-55
2023/01/16 06:19:20;;;;;;;14.45;3.50;;;;;;;2.93;100.00;98536.78;5053616;28;20029;-55
2023/01/16 06:21:45;;;;;;;22.67;4.13;;;;;;;2.93;100.00;98532.56;5052732;28;20468;-55
2023/01/16 06:24:11;;;;;;;15.98;3.38;;;;;;;2.93;100.00;98524.06;5053239;28;20035;-55
2023/01/16 06:26:36;;;;;;;13.05;3.33;;;;;;;2.91;100.00;98513.84;5053326;28;20025;-55
2023/01/16 06:29:02;;;;;;;19.42;3.67;;;;;;;2.89;100.00;98512.97;5053078;28;20086;-55
2023/01/16 06:31:28;;;;;;;10.82;2.78;;;;;;;2.88;100.00;98513.78;5053138;28;20052;-55
2023/01/16 06:33:53;;;;;;;14.18;3.25;;;;;;;2.87;100.00;98506.13;5053449;28;20465;-55
2023/01/16 06:36:18;;;;;;;13.82;3.60;;;;;;;2.84;100.00;98495.88;5052800;28;20111;-54
2023/01/16 06:38:44;;;;;;;13.07;3.60;;;;;;;2.81;100.00;98491.56;5052660;28;20017;-55
2023/01/16 06:41:10;;;;;;;10.35;3.25;;;;;;;2.78;100.00;98476.25;5053489;28;20039;-54
2023/01/16 06:43:35;;;;;;;12.85;3.50;;;;;;;2.81;100.00;98471.22;5052539;28;20029;-54
2023/01/16 06:46:00;;;;;;;12.75;3.63;;;;;;;2.83;100.00;98464.50;5052923;28;20033;-54
2023/01/16 06:48:26;;;;;;;13.05;3.50;;;;;;;2.84;100.00;98450.06;5053187;28;20046;-55
2023/01/16 06:50:52;;;;;;;16.55;3.40;;;;;;;2.81;100.00;98443.22;5052331;28;20028;-55
2023/01/16 06:53:18;;;;;;;12.10;3.33;;;;;;;2.78;100.00;98431.31;5052583;28;20035;-54
2023/01/16 06:55:43;;;;;;;17.08;3.30;;;;;;;2.76;100.00;98419.38;5052973;28;20023;-54
2023/01/16 06:58:09;;;;;;;19.85;3.78;;;;;;;2.73;100.00;98402.38;5052120;28;20031;-54
2023/01/16 07:00:35;;;;;;;11.38;3.33;;;;;;;2.71;100.00;98393.88;5052679;28;20039;-55
2023/01/16 07:03:01;;;;;;;16.35;3.67;;;;;;;2.70;100.00;98383.63;5052956;28;20033;-54
2023/01/16 07:05:28;;;;;;;14.38;3.50;;;;;;;2.69;100.00;98365.00;5052212;28;20020;-53
2023/01/16 07:07:53;;;;;;;12.98;2.60;;;;;;;2.71;100.00;98358.25;5052651;28;20048;-54
2023/01/16 07:10:20;;;;;;;12.40;2.90;;;;;;;2.72;100.00;98351.47;5053016;28;20021;-55
2023/01/16 07:12:46;;;;;;;12.32;3.03;;;;;;;2.72;100.00;98343.84;5051723;28;20487;-55
2023/01/16 07:23:30;;;;;;;14.65;3.33;;;;;;;2.70;100.00;98300.59;5053265;28;20070;-54
2023/01/16 07:25:57;;;;;;;12.88;3.03;;;;;;;2.71;100.00;98298.88;5058709;28;20021;-55
2023/01/16 07:28:22;;;;;;;14.43;3.28;;;;;;;2.71;100.00;98287.06;5059110;28;20104;-54
2023/01/16 07:30:49;;;;;;;13.85;2.90;;;;;;;2.72;100.00;98282.81;5058920;28;20501;-55
2023/01/16 07:33:14;;;;;;;14.82;2.97;;;;;;;2.70;100.00;98275.16;5058602;28;20025;-54
2023/01/16 07:35:40;;;;;;;8.82;2.85;;;;;;;2.71;100.00;98265.81;5059061;28;20032;-53
2023/01/16 07:38:05;;;;;;;16.35;3.47;;;;;;;2.70;100.00;98266.66;5059187;28;20025;-55
2023/01/16 07:40:30;;;;;;;14.65;3.33;;;;;;;2.69;100.00;98265.81;5058173;28;20024;-55
2023/01/16 07:42:56;;;;;;;10.05;3.15;;;;;;;2.69;100.00;98236.97;5059125;28;20017;-55
2023/01/16 07:45:21;;;;;;;15.38;3.35;;;;;;;2.68;100.00;98251.38;5059075;28;20468;-54
2023/01/16 07:47:46;;;;;;;12.75;2.60;;;;;;;2.67;100.00;98233.53;5058206;28;20028;-55
2023/01/16 07:50:12;;;;;;;16.20;3.53;;;;;;;2.69;100.00;98234.44;5059210;28;20098;-54
2023/01/16 07:52:37;;;;;;;14.27;3.35;;;;;;;2.70;100.00;98231.03;5058690;28;20116;-54
2023/01/16 07:55:03;;;;;;;14.27;2.90;;;;;;;2.71;100.00;98222.59;5058497;28;20017;-55
2023/01/16 07:57:28;;;;;;;15.93;3.40;;;;;;;2.69;100.00;98232.75;5058856;28;20037;-55
2023/01/16 07:59:54;;;;;;;12.75;2.90;;;;;;;2.70;100.00;98214.13;5058843;28;20033;-55
2023/01/16 08:02:20;;;;;;;9.45;2.80;;;;;;;2.72;100.00;98207.34;5058389;28;20032;-55
2023/01/16 08:04:46;;;;;;;13.07;3.47;;;;;;;2.72;100.00;98197.19;5058612;28;20024;-55
2023/01/16 08:07:11;;;;;;;11.32;3.08;;;;;;;2.72;100.00;98186.16;5058287;28;20055;-54
2023/01/16 08:09:36;;;;;;;12.95;3.45;;;;;;;2.70;100.00;98180.19;5058420;28;20037;-55
2023/01/16 08:12:02;;;;;;;10.80;3.13;;;;;;;2.72;100.00;98181.06;5058687;28;20025;-54
2023/01/16 08:14:27;;;;;;;13.98;3.65;;;;;;;2.72;100.00;98170.91;5058090;28;20029;-55
2023/01/16 08:16:53;;;;;;;13.65;3.17;;;;;;;2.72;100.00;98166.66;5058778;28;20107;-55
2023/01/16 08:19:18;;;;;;;13.60;3.60;;;;;;;2.72;100.00;98158.19;5058864;28;20025;-54
2023/01/16 08:21:43;;;;;;;21.02;3.90;;;;;;;2.73;100.00;98147.19;5057956;28;20032;-55
2023/01/16 08:24:12;;;;;;;10.65;3.10;;;;;;;2.74;100.00;98138.75;5058589;28;20021;-54
2023/01/16 08:26:37;;;;;;;12.50;3.33;;;;;;;2.75;100.00;98128.59;5058436;28;20488;-55
2023/01/16 08:29:03;;;;;;;15.18;4.53;;;;;;;2.77;100.00;98123.50;5058140;28;20064;-54
2023/01/16 08:31:28;;;;;;;16.38;3.35;;;;;;;2.78;100.00;98112.53;5058385;28;20024;-55
2023/01/16 08:33:53;;;;;;;11.77;3.20;;;;;;;2.79;100.00;98111.69;5058938;28;20060;-54
2023/01/16 08:36:20;;;;;;;13.55;3.63;;;;;;;2.82;100.00;98105.81;5054830;28;20021;-54
2023/01/16 08:38:47;;;;;;;14.27;3.50;;;;;;;2.80;100.00;98098.13;5055110;28;20086;-53
2023/01/16 08:52:10;;;;;;;13.13;3.55;;;;;;;2.93;100.00;98078.81;5055097;28;20040;-53
2023/01/16 08:54:35;;;;;;;11.15;3.40;;;;;;;2.95;100.00;98087.34;5055107;28;20025;-53
2023/01/16 08:57:00;;;;;;;11.35;3.78;;;;;;;2.94;100.00;98081.41;5054800;28;20081;-53
2023/01/16 08:59:28;;;;;;;13.00;3.97;;;;;;;2.94;100.00;98075.44;5055079;28;20380;-54
2023/01/16 09:01:53;;;;;;;14.52;3.20;;;;;;;2.96;100.00;98074.63;5055183;28;20024;-54
2023/01/16 09:04:19;;;;;;;12.63;3.53;;;;;;;2.97;100.00;98076.34;5054586;28;20529;-53
2023/01/16 09:06:44;;;;;;;10.45;3.42;;;;;;;3.00;100.00;98067.06;5054262;28;20049;-54
2023/01/16 09:09:09;;;;;;;10.65;3.50;;;;;;;3.00;100.00;98069.63;5055373;28;20032;-54
2023/01/16 09:14:19;;;;;;;8.82;3.10;;;;;;;3.00;100.00;98064.53;5054987;28;20052;-54
2023/01/16 09:16:45;;;;;;;10.73;3.13;;;;;;;2.99;100.00;98063.66;5054713;28;20456;-55
2023/01/16 09:19:10;;;;;;;10.70;3.20;;;;;;;2.99;100.00;98060.25;5053921;28;20032;-55
2023/01/16 09:21:36;;;;;;;8.80;3.33;;;;;;;2.97;100.00;98050.91;5054612;28;20052;-55
2023/01/16 09:24:02;;;;;;;7.15;3.15;;;;;;;2.97;100.00;98052.63;5054851;28;20032;-54
2023/01/16 09:26:28;;;;;;;11.77;3.17;;;;;;;2.94;100.00;98047.47;5053910;28;20107;-55
2023/01/16 09:28:53;;;;;;;9.85;3.00;;;;;;;2.93;100.00;98051.72;5054546;28;20353;-55
2023/01/16 09:31:18;;;;;;;6.53;2.30;;;;;;;2.92;100.00;98047.44;5054527;28;20025;-55
2023/01/16 09:33:44;;;;;;;8.68;2.92;;;;;;;2.91;100.00;98044.88;5053334;28;20039;-55
2023/01/16 09:36:10;;;;;;;7.47;2.63;;;;;;;2.89;100.00;98036.38;5054716;28;20100;-56
2023/01/16 09:38:35;;;;;;;3.78;2.10;;;;;;;2.89;100.00;98034.69;5054213;28;20047;-56
2023/01/16 09:41:01;;;;;;;4.70;2.17;;;;;;;2.91;100.00;98029.63;5053821;28;20025;-56
2023/01/16 09:43:35;;;;;;;6.40;2.55;;;;;;;2.92;100.00;98042.38;5054348;28;20112;-56
2023/01/16 09:46:11;;;;;;;4.53;2.42;;;;;;;2.92;100.00;98028.78;5053695;28;20385;-56
2023/01/16 09:48:44;;;;;;;7.70;2.40;;;;;;;2.95;100.00;98034.75;5053319;28;20033;-56
2023/01/16 09:51:34;;;;;;;7.85;2.95;;;;;;;2.98;100.00;98023.78;5054344;28;20035;-56
2023/01/16 09:59:41;;;;;;;5.95;3.00;;;;;;;3.02;100.00;98017.03;5053849;28;20467;-56
2023/01/16 10:02:30;;;;;;;17.25;8.30;;;;;;;3.04;100.00;98015.38;5053487;28;20021;-55
2023/01/16 10:04:57;;;;;;;8.13;3.72;;;;;;;3.06;100.00;98014.56;5053895;28;20117;-55
2023/01/16 10:07:34;;;;;;;3.83;1.60;;;;;;;3.10;100.00;98012.94;5053156;28;20124;-55
2023/01/16 10:10:13;;;;;;;5.28;3.13;;;;;;;3.15;100.00;98007.91;5053989;28;20075;-56
2023/01/16 10:12:41;;;;;;;14.30;7.35;;;;;;;3.13;100.00;98003.63;5053628;28;20037;-56
2023/01/16 10:15:30;;;;;;;5.13;2.38;;;;;;;3.16;100.00;98000.28;5052927;28;20488;-55
2023/01/16 10:18:29;;;;;;;5.22;2.13;;;;;;;3.21;100.00;97983.38;5053781;28;20059;-56
2023/01/16 10:21:16;;;;;;;11.20;6.38;;;;;;;3.25;100.00;97989.38;5049875;28;20069;-56
2023/01/16 10:23:48;;;;;;;9.38;2.47;;;;;;;3.36;100.00;97972.53;5052907;28;20056;-55
2023/01/16 10:26:39;;;;;;;7.28;3.58;;;;;;;3.59;100.00;97961.75;5053726;28;20021;-55
2023/01/16 10:29:31;;;;;;;6.97;2.58;;;;;;;3.81;100.00;97965.41;5052738;28;20040;-56
2023/01/16 10:32:11;;;;;;;4.68;2.70;;;;;;;3.94;100.00;97961.28;5053352;28;20021;-56
2023/01/16 10:34:51;;;;;;;3.88;1.90;;;;;;;4.00;100.00;97958.75;5053301;28;20021;-54
2023/01/16 10:37:18;;;;;;;7.28;3.30;;;;;;;4.09;100.00;97950.34;5052783;28;20461;-56
2023/01/16 10:39:44;;;;;;;3.63;1.55;;;;;;;4.08;100.00;97941.88;5053065;28;20350;-55
2023/01/16 10:50:31;;;;;;;4.28;2.33;;;;;;;4.08;100.00;97929.13;5052402;28;20128;-56
2023/01/16 10:52:56;;;;;;;6.63;2.10;;;;;;;4.10;100.00;97919.78;5053000;28;20061;-56
2023/01/16 10:55:22;;;;;;;5.35;1.42;;;;;;;4.16;100.00;97916.44;5053271;28;20057;-56
2023/01/16 10:57:54;;;;;;;7.57;3.30;;;;;;;4.14;100.00;97913.00;5052109;28;20040;-56
2023/01/16 11:00:41;;;;;;;8.60;3.92;;;;;;;4.14;100.00;97909.63;5052431;28;20087;-56
2023/01/16 11:03:39;;;;;;;4.82;2.20;;;;;;;4.11;100.00;97895.16;5052390;28;20499;-56
2023/01/16 11:06:10;;;;;;;4.55;2.17;;;;;;;4.09;100.00;97886.63;5052754;28;20123;-56
2023/01/16 11:08:35;;;;;;;5.78;1.60;;;;;;;4.12;100.00;97882.41;5052693;28;20025;-56
2023/01/16 11:11:01;;;;;;;4.45;1.65;;;;;;;4.07;100.00;97880.69;5052113;28;20410;-56
2023/01/16 11:19:18;;;;;;;4.93;1.45;;;;;;;4.10;100.00;97855.22;5051979;28;20110;-56
2023/01/16 11:21:50;;;;;;;2.88;1.58;;;;;;;4.09;100.00;97846.72;5052586;28;20032;-56
2023/01/16 11:24:29;;;;;;;3.05;1.30;;;;;;;4.15;100.00;97853.56;5052171;28;20103;-55
2023/01/16 11:26:58;;;;;;;2.40;1.20;;;;;;;4.16;100.00;97842.50;5052513;28;20361;-56
2023/01/16 11:29:30;;;;;;;2.90;1.30;;;;;;;4.20;100.00;97835.75;5052744;28;20024;-56
2023/01/16 11:31:59;;;;;;;4.32;1.83;;;;;;;4.20;100.00;97828.09;5051950;28;20025;-56
2023/01/16 11:34:28;;;;;;;8.40;3.88;;;;;;;4.25;100.00;97829.81;5052751;28;20074;-56
2023/01/16 11:37:06;;;;;;;6.72;2.80;;;;;;;4.31;100.00;97823.91;5052482;28;20068;-56
2023/01/16 11:39:34;;;;;;;3.38;1.20;;;;;;;4.31;100.00;97818.78;5051633;28;20112;-56
2023/01/16 11:46:02;;;;;;;9.77;3.35;;;;;;;4.34;100.00;97808.63;5052698;28;20060;-56
2023/01/16 11:47:44;;;;;;;2.05;1.15;;;;;;;4.39;100.00;97795.91;5051694;28;20040;-55
2023/01/16 11:50:28;;;;;;;3.42;1.40;;;;;;;4.38;100.00;97794.22;5052569;28;20046;-55
2023/01/16 11:52:53;;;;;;;5.43;2.08;;;;;;;4.36;100.00;97785.69;5051814;28;20461;-56
2023/01/16 11:55:19;;;;;;;3.38;1.63;;;;;;;4.37;100.00;97777.19;5052360;28;20028;-56
2023/01/16 11:58:01;;;;;;;11.10;5.65;;;;;;;4.36;100.00;97778.03;5052299;28;20029;-56
2023/01/16 12:01:13;;;;;;;2.92;1.58;;;;;;;4.37;100.00;97767.00;5051811;28;20025;-56
2023/01/16 12:03:51;;;;;;;4.53;1.63;;;;;;;4.36;100.00;97775.50;5039938;28;20049;-56
2023/01/16 12:07:07;;;;;;;4.85;1.58;;;;;;;4.39;100.00;97765.28;5052344;28;20037;-56
2023/01/16 12:09:45;;;;;;;4.30;2.42;;;;;;;4.40;100.00;97750.03;5039929;28;20405;-56
2023/01/16 12:15:05;;;;;;;3.20;1.63;;;;;;;4.36;100.00;97750.00;5055725;28;20418;-56
2023/01/16 12:17:42;;;;;;;3.03;1.77;;;;;;;4.38;100.00;97738.13;5055579;28;20021;-56
2023/01/16 12:20:32;;;;;;;3.75;2.10;;;;;;;4.41;100.00;97733.84;5055913;28;20029;-56
2023/01/16 12:23:25;;;;;;;5.15;2.17;;;;;;;4.45;100.00;97729.63;5055838;28;20123;-56
2023/01/16 12:26:20;;;;;;;5.60;1.90;;;;;;;4.49;100.00;97731.34;5055673;28;20100;-56
2023/01/16 12:29:11;;;;;;;6.90;4.13;;;;;;;4.50;100.00;97722.84;5054663;28;20400;-56
2023/01/16 12:31:37;;;;;;;5.07;2.30;;;;;;;4.50;100.00;97720.28;5055636;28;20029;-56